Zim Qingdao — A8IZ2 — position and weather

sailwx.info

Track history (hours):
 
Tides and Currents Weather Stations Pressure Air Temp Water Temp Dewpoint Dewpoint Depression Visibility Wind Speed Wind Dir Waves Ship Positions

Zim Qingdao

Last reported at 2015-Aug-28 23:31 UTC. Time now 2015-Aug-29 00:25 UTC.
Position N 46°29' E 030°46'.

Length 260.61 m; beam 32.25 m; draft 12.6 m.

Type: Cargo ship. MMSI: 636012904.

Date/timePositionNaut miles runAvg speedWind from/ knotsBaromVisibWave heightAir tempDewpointWater temp
2015-Aug-28 23:31N 46°29' E 030°46'0 0.0
2015-Aug-28 22:31N 46°29' E 030°46'0 0.0
2015-Aug-28 21:31N 46°29' E 030°46'0 0.0
2015-Aug-28 20:31N 46°29' E 030°46'0 0.0
2015-Aug-28 19:34N 46°29' E 030°46'0 0.0
2015-Aug-28 18:28N 46°29' E 030°46'0 0.0
2015-Aug-28 17:31N 46°29' E 030°46'29 6.7
2015-Aug-28 13:15N 46°07' E 031°11'1316.2
2015-Aug-28 12:27N 45°57' E 031°24'11516.2
2015-Aug-28 05:22N 44°31' E 033°12'1616.2
2015-Aug-28 04:22N 44°19' E 033°27'3015.9
2015-Aug-28 02:30N 44°18' E 034°09'1515.9
2015-Aug-28 01:33N 44°18' E 034°30'1616.3
2015-Aug-28 00:33N 44°17' E 034°52'1615.9
2015-Aug-27 23:33N 44°17' E 035°15'1616.1
2015-Aug-27 22:33N 44°16' E 035°37'1616.1
2015-Aug-27 21:33N 44°14' E 035°59'1616.0
2015-Aug-27 20:33N 44°13' E 036°22'1616.0
2015-Aug-27 19:33N 44°12' E 036°44'1616.0
2015-Aug-27 18:33N 44°18' E 037°04'40 1.8
2015-Aug-26 20:18N 44°44' E 037°47'0 0.0
2015-Aug-26 19:33N 44°44' E 037°47'0 0.0
2015-Aug-26 18:30N 44°44' E 037°47'0 0.0
2015-Aug-26 17:33N 44°44' E 037°47'0 0.0
2015-Aug-26 16:33N 44°44' E 037°47'0 0.0
2015-Aug-26 15:30N 44°44' E 037°47'0 0.0
2015-Aug-26 14:33N 44°44' E 037°47'0 0.0
2015-Aug-26 13:33N 44°44' E 037°47'0 0.0
2015-Aug-26 12:33N 44°44' E 037°47'0 0.0
2015-Aug-26 11:33N 44°44' E 037°47'0 0.0
2015-Aug-26 10:33N 44°44' E 037°47'0 0.0
2015-Aug-26 09:33N 44°44' E 037°47'0 0.0
2015-Aug-26 08:33N 44°44' E 037°47'1 1.5
2015-Aug-26 07:33N 44°43' E 037°49'10 9.7
2015-Aug-26 06:33N 44°34' E 037°54'0 0.4
2015-Aug-26 05:31N 44°34' E 037°55'0 0.0
2015-Aug-26 04:31N 44°34' E 037°55'0 0.0
2015-Aug-26 03:25N 44°34' E 037°55'0 0.0
2015-Aug-26 02:31N 44°34' E 037°55'0 0.0
2015-Aug-26 01:31N 44°34' E 037°55'0 0.0
2015-Aug-26 00:31N 44°34' E 037°55'0 0.1
2015-Aug-25 23:28N 44°34' E 037°55'0 0.1
2015-Aug-25 22:31N 44°34' E 037°55'0 0.0
2015-Aug-25 21:31N 44°34' E 037°55'0 0.0
2015-Aug-25 20:31N 44°34' E 037°55'0 0.0
2015-Aug-25 19:31N 44°34' E 037°55'0 0.0
2015-Aug-25 18:31N 44°34' E 037°55'0 0.0
2015-Aug-25 17:31N 44°34' E 037°55'0 0.1
2015-Aug-25 16:31N 44°34' E 037°55'0 0.0
2015-Aug-25 15:31N 44°34' E 037°55'0 0.0
2015-Aug-25 14:31N 44°34' E 037°55'0 0.0
2015-Aug-25 13:31N 44°34' E 037°55'0 0.0
2015-Aug-25 12:28N 44°34' E 037°55'0 0.0
2015-Aug-25 11:31N 44°34' E 037°55'3 2.7
2015-Aug-25 10:33N 44°33' E 037°51'1 1.1
2015-Aug-25 09:33N 44°31' E 037°51'5 4.8
2015-Aug-25 08:33N 44°28' E 037°47'4 3.5
2015-Aug-25 07:33N 44°28' E 037°42'2 2.1
2015-Aug-25 06:33N 44°28' E 037°39'2 2.5
2015-Aug-25 05:33N 44°29' E 037°42'2 1.7
2015-Aug-25 04:33N 44°29' E 037°45'4 3.9
2015-Aug-25 03:33N 44°28' E 037°40'4 3.9
2015-Aug-25 02:33N 44°26' E 037°35'2 2.0
2015-Aug-25 01:23N 44°24' E 037°33'2 2.7
2015-Aug-25 00:33N 44°24' E 037°36'1 1.2
2015-Aug-24 23:33N 44°24' E 037°34'4 4.2
2015-Aug-24 22:31N 44°23' E 037°29'1 1.1
2015-Aug-24 21:28N 44°23' E 037°30'2 1.9
2015-Aug-24 20:29N 44°24' E 037°33'2 1.5
2015-Aug-24 19:24N 44°24' E 037°35'0 0.4
2015-Aug-24 18:33N 44°24' E 037°35'4 3.5
2015-Aug-24 17:33N 44°25' E 037°31'1 0.7
2015-Aug-24 16:32N 44°25' E 037°32'3 3.2
2015-Aug-24 15:33N 44°24' E 037°27'42615.1
2015-Aug-23 11:18N 40°59' E 028°60'6 7.4
2015-Aug-23 10:31N 40°54' E 028°57'6 6.0
2015-Aug-23 09:30N 40°49' E 028°52'2 2.0
2015-Aug-23 08:33N 40°48' E 028°50'1 1.0
2015-Aug-23 07:33N 40°49' E 028°50'1 0.8
2015-Aug-23 06:28N 40°50' E 028°50'23613.1
2015-Aug-22 12:32N 37°40' E 025°47'1717.6
2015-Aug-22 11:34N 37°24' E 025°54'3717.5
2015-Aug-22 09:27N 36°53' E 026°18'2018.2
2015-Aug-22 08:20N 36°39' E 026°36'3417.9
2015-Aug-22 06:28N 36°15' E 027°06'1717.9
2015-Aug-22 05:31N 36°03' E 027°21'12517.9
2015-Aug-21 22:31N 34°59' E 029°33'1818.3
2015-Aug-21 21:33N 34°51' E 029°52'7618.2
2015-Aug-21 17:22N 34°15' E 031°14'3217.9
2015-Aug-21 15:34N 34°00' E 031°49'1817.9
2015-Aug-21 14:33N 33°52' E 032°08'3718.3
2015-Aug-21 12:32N 33°34' E 032°47'121 5.2
2015-Aug-20 13:28N 32°49' E 035°01'0 0.0
2015-Aug-20 12:04N 32°49' E 035°01'0 0.0
2015-Aug-20 09:19N 32°49' E 035°01'0 0.0
2015-Aug-19 16:31N 32°49' E 035°01'0 0.0
2015-Aug-19 15:31N 32°49' E 035°01'0 0.0
2015-Aug-19 13:31N 32°49' E 035°01'  
Track history (hours):
 
Tides and Currents Weather Stations Pressure Air Temp Water Temp Dewpoint Dewpoint Depression Visibility Wind Speed Wind Dir Waves Ship Positions

Zim Qingdao

Last reported at 2015-Aug-28 23:31 UTC. Time now 2015-Aug-29 00:25 UTC.
Position N 46°29' E 030°46'.

Length 260.61 m; beam 32.25 m; draft 12.6 m.

Type: Cargo ship. MMSI: 636012904.

Date/timePositionNaut miles runAvg speedWind from/ knotsBaromVisibWave heightAir tempDewpointWater temp
2015-Aug-28 23:31N 46°29' E 030°46'0 0.0
2015-Aug-28 22:31N 46°29' E 030°46'0 0.0
2015-Aug-28 21:31N 46°29' E 030°46'0 0.0
2015-Aug-28 20:31N 46°29' E 030°46'0 0.0
2015-Aug-28 19:34N 46°29' E 030°46'0 0.0
2015-Aug-28 18:28N 46°29' E 030°46'0 0.0
2015-Aug-28 17:31N 46°29' E 030°46'29 6.7
2015-Aug-28 13:15N 46°07' E 031°11'1316.2
2015-Aug-28 12:27N 45°57' E 031°24'11516.2
2015-Aug-28 05:22N 44°31' E 033°12'1616.2
2015-Aug-28 04:22N 44°19' E 033°27'3015.9
2015-Aug-28 02:30N 44°18' E 034°09'1515.9
2015-Aug-28 01:33N 44°18' E 034°30'1616.3
2015-Aug-28 00:33N 44°17' E 034°52'1615.9
2015-Aug-27 23:33N 44°17' E 035°15'1616.1
2015-Aug-27 22:33N 44°16' E 035°37'1616.1
2015-Aug-27 21:33N 44°14' E 035°59'1616.0
2015-Aug-27 20:33N 44°13' E 036°22'1616.0
2015-Aug-27 19:33N 44°12' E 036°44'1616.0
2015-Aug-27 18:33N 44°18' E 037°04'40 1.8
2015-Aug-26 20:18N 44°44' E 037°47'0 0.0
2015-Aug-26 19:33N 44°44' E 037°47'0 0.0
2015-Aug-26 18:30N 44°44' E 037°47'0 0.0
2015-Aug-26 17:33N 44°44' E 037°47'0 0.0
2015-Aug-26 16:33N 44°44' E 037°47'0 0.0
2015-Aug-26 15:30N 44°44' E 037°47'0 0.0
2015-Aug-26 14:33N 44°44' E 037°47'0 0.0
2015-Aug-26 13:33N 44°44' E 037°47'0 0.0
2015-Aug-26 12:33N 44°44' E 037°47'0 0.0
2015-Aug-26 11:33N 44°44' E 037°47'0 0.0
2015-Aug-26 10:33N 44°44' E 037°47'0 0.0
2015-Aug-26 09:33N 44°44' E 037°47'0 0.0
2015-Aug-26 08:33N 44°44' E 037°47'1 1.5
2015-Aug-26 07:33N 44°43' E 037°49'10 9.7
2015-Aug-26 06:33N 44°34' E 037°54'0 0.4
2015-Aug-26 05:31N 44°34' E 037°55'0 0.0
2015-Aug-26 04:31N 44°34' E 037°55'0 0.0
2015-Aug-26 03:25N 44°34' E 037°55'0 0.0
2015-Aug-26 02:31N 44°34' E 037°55'0 0.0
2015-Aug-26 01:31N 44°34' E 037°55'0 0.0
2015-Aug-26 00:31N 44°34' E 037°55'0 0.1
2015-Aug-25 23:28N 44°34' E 037°55'0 0.1
2015-Aug-25 22:31N 44°34' E 037°55'0 0.0
2015-Aug-25 21:31N 44°34' E 037°55'0 0.0
2015-Aug-25 20:31N 44°34' E 037°55'0 0.0
2015-Aug-25 19:31N 44°34' E 037°55'0 0.0
2015-Aug-25 18:31N 44°34' E 037°55'0 0.0
2015-Aug-25 17:31N 44°34' E 037°55'0 0.1
2015-Aug-25 16:31N 44°34' E 037°55'0 0.0
2015-Aug-25 15:31N 44°34' E 037°55'0 0.0
2015-Aug-25 14:31N 44°34' E 037°55'0 0.0
2015-Aug-25 13:31N 44°34' E 037°55'0 0.0
2015-Aug-25 12:28N 44°34' E 037°55'0 0.0
2015-Aug-25 11:31N 44°34' E 037°55'3 2.7
2015-Aug-25 10:33N 44°33' E 037°51'1 1.1
2015-Aug-25 09:33N 44°31' E 037°51'5 4.8
2015-Aug-25 08:33N 44°28' E 037°47'4 3.5
2015-Aug-25 07:33N 44°28' E 037°42'2 2.1
2015-Aug-25 06:33N 44°28' E 037°39'2 2.5
2015-Aug-25 05:33N 44°29' E 037°42'2 1.7
2015-Aug-25 04:33N 44°29' E 037°45'4 3.9
2015-Aug-25 03:33N 44°28' E 037°40'4 3.9
2015-Aug-25 02:33N 44°26' E 037°35'2 2.0
2015-Aug-25 01:23N 44°24' E 037°33'2 2.7
2015-Aug-25 00:33N 44°24' E 037°36'1 1.2
2015-Aug-24 23:33N 44°24' E 037°34'4 4.2
2015-Aug-24 22:31N 44°23' E 037°29'1 1.1
2015-Aug-24 21:28N 44°23' E 037°30'2 1.9
2015-Aug-24 20:29N 44°24' E 037°33'2 1.5
2015-Aug-24 19:24N 44°24' E 037°35'0 0.4
2015-Aug-24 18:33N 44°24' E 037°35'4 3.5
2015-Aug-24 17:33N 44°25' E 037°31'1 0.7
2015-Aug-24 16:32N 44°25' E 037°32'3 3.2
2015-Aug-24 15:33N 44°24' E 037°27'42615.1
2015-Aug-23 11:18N 40°59' E 028°60'6 7.4
2015-Aug-23 10:31N 40°54' E 028°57'6 6.0
2015-Aug-23 09:30N 40°49' E 028°52'2 2.0
2015-Aug-23 08:33N 40°48' E 028°50'1 1.0
2015-Aug-23 07:33N 40°49' E 028°50'1 0.8
2015-Aug-23 06:28N 40°50' E 028°50'23613.1
2015-Aug-22 12:32N 37°40' E 025°47'1717.6
2015-Aug-22 11:34N 37°24' E 025°54'3717.5
2015-Aug-22 09:27N 36°53' E 026°18'2018.2
2015-Aug-22 08:20N 36°39' E 026°36'3417.9
2015-Aug-22 06:28N 36°15' E 027°06'1717.9
2015-Aug-22 05:31N 36°03' E 027°21'12517.9
2015-Aug-21 22:31N 34°59' E 029°33'1818.3
2015-Aug-21 21:33N 34°51' E 029°52'7618.2
2015-Aug-21 17:22N 34°15' E 031°14'3217.9
2015-Aug-21 15:34N 34°00' E 031°49'1817.9
2015-Aug-21 14:33N 33°52' E 032°08'3718.3
2015-Aug-21 12:32N 33°34' E 032°47'121 5.2
2015-Aug-20 13:28N 32°49' E 035°01'0 0.0
2015-Aug-20 12:04N 32°49' E 035°01'0 0.0
2015-Aug-20 09:19N 32°49' E 035°01'0 0.0
2015-Aug-19 16:31N 32°49' E 035°01'0 0.0
2015-Aug-19 15:31N 32°49' E 035°01'0 0.0
2015-Aug-19 13:31N 32°49' E 035°01'  

Dump ship's entire track history